createdAt,value
2023-04-28T00:02:03.893Z,26.92
2023-04-28T00:04:30.691Z,31.60
2023-04-28T00:06:57.335Z,28.95
2023-04-28T00:09:24.213Z,27.25
2023-04-28T00:11:50.767Z,32.42
2023-04-28T00:14:17.500Z,24.90
2023-04-28T00:16:44.400Z,26.38
2023-04-28T00:19:11.079Z,24.75
2023-04-28T00:21:37.531Z,24.33
2023-04-28T00:24:04.072Z,26.52
2023-04-28T00:26:30.699Z,28.75
2023-04-28T00:28:57.111Z,30.48
2023-04-28T00:31:23.817Z,20.15
2023-04-28T00:33:50.481Z,21.67
2023-04-28T00:36:17.050Z,25.98
2023-04-28T00:38:43.591Z,18.88
2023-04-28T00:41:11.405Z,19.90
2023-04-28T00:43:47.799Z,23.35
2023-04-28T00:46:43.697Z,21.70
2023-04-28T00:49:10.726Z,19.85
2023-04-28T00:51:37.233Z,23.95
2023-04-28T00:54:04.153Z,19.50
2023-04-28T00:56:33.184Z,26.90
2023-04-28T00:58:59.703Z,37.50
2023-04-28T01:01:26.259Z,26.95
2023-04-28T01:03:53.092Z,24.63
2023-04-28T01:06:20.344Z,24.58
2023-04-28T01:08:48.833Z,26.10
2023-04-28T01:11:15.444Z,24.23
2023-04-28T01:13:41.866Z,22.75
2023-04-28T01:16:08.285Z,31.95
2023-04-28T01:18:35.028Z,21.77
2023-04-28T01:21:01.519Z,25.88
2023-04-28T01:23:27.961Z,24.17
2023-04-28T01:25:54.361Z,29.20
2023-04-28T01:28:20.994Z,20.80
2023-04-28T01:30:47.417Z,24.25
2023-04-28T01:33:13.809Z,23.25
2023-04-28T01:35:40.259Z,25.02
2023-04-28T01:38:06.811Z,28.77
2023-04-28T01:40:33.358Z,33.17
2023-04-28T01:42:59.871Z,30.38
2023-04-28T01:45:26.385Z,20.45
2023-04-28T01:47:52.905Z,25.35
2023-04-28T01:50:19.356Z,23.50
2023-04-28T01:52:45.865Z,22.55
2023-04-28T01:55:12.282Z,18.98
2023-04-28T01:57:38.739Z,19.65
2023-04-28T02:00:05.631Z,17.88
2023-04-28T02:02:32.264Z,19.85
2023-04-28T02:04:58.782Z,16.92
2023-04-28T02:07:25.421Z,20.08
2023-04-28T02:09:51.926Z,24.63
2023-04-28T02:12:18.345Z,20.20
2023-04-28T02:14:45.052Z,17.33
2023-04-28T02:17:11.557Z,17.77
2023-04-28T02:19:38.738Z,22.00
2023-04-28T02:22:05.153Z,19.30
2023-04-28T02:24:34.820Z,16.67
2023-04-28T02:27:01.327Z,18.73
2023-04-28T02:29:27.801Z,20.60
2023-04-28T02:31:54.362Z,17.65
2023-04-28T02:34:21.397Z,19.75
2023-04-28T02:36:48.421Z,18.85
2023-04-28T02:39:14.856Z,20.20
2023-04-28T02:41:41.523Z,19.25
2023-04-28T02:44:27.077Z,17.58
2023-04-28T02:46:53.623Z,19.33
2023-04-28T02:49:20.108Z,24.50
2023-04-28T02:51:46.585Z,16.83
2023-04-28T02:54:13.132Z,17.70
2023-04-28T02:56:41.404Z,16.25
2023-04-28T02:59:08.149Z,22.15
2023-04-28T03:01:34.746Z,18.73
2023-04-28T03:04:01.555Z,23.42
2023-04-28T03:06:28.389Z,25.98
2023-04-28T03:08:54.981Z,18.92
2023-04-28T03:11:21.693Z,20.50
2023-04-28T03:13:48.097Z,24.52
2023-04-28T03:16:14.599Z,21.50
2023-04-28T03:18:41.238Z,25.80
2023-04-28T03:21:07.814Z,29.67
2023-04-28T03:23:34.304Z,24.38
2023-04-28T03:26:00.718Z,25.02
2023-04-28T03:28:27.154Z,25.95
2023-04-28T03:30:54.815Z,27.17
2023-04-28T03:33:21.364Z,25.27
2023-04-28T03:35:47.884Z,23.65
2023-04-28T03:38:14.707Z,20.73
2023-04-28T03:40:41.364Z,23.63
2023-04-28T03:43:07.870Z,18.83
2023-04-28T03:45:34.369Z,24.20
2023-04-28T03:48:00.816Z,31.17
2023-04-28T03:50:27.310Z,32.45
2023-04-28T03:52:53.821Z,27.05
2023-04-28T03:55:20.204Z,31.73
2023-04-28T03:57:46.983Z,31.77
2023-04-28T04:00:14.377Z,24.40
2023-04-28T04:02:41.006Z,26.58
2023-04-28T04:05:07.873Z,27.77
2023-04-28T04:07:34.420Z,24.02
2023-04-28T04:10:03.291Z,24.50
2023-04-28T04:12:30.802Z,22.77
2023-04-28T04:14:57.252Z,31.45
2023-04-28T04:17:23.804Z,25.17
2023-04-28T04:19:50.259Z,26.88
2023-04-28T04:22:16.749Z,30.23
2023-04-28T04:24:43.221Z,24.70
2023-04-28T04:27:09.674Z,21.77
2023-04-28T04:29:39.413Z,27.20
2023-04-28T04:32:05.916Z,30.92
2023-04-28T04:34:32.559Z,26.73
2023-04-28T04:36:59.026Z,20.30
2023-04-28T04:39:25.539Z,18.10
2023-04-28T04:41:52.564Z,19.67
2023-04-28T04:44:19.312Z,26.05
2023-04-28T04:46:46.369Z,15.38
2023-04-28T04:49:12.955Z,13.02
2023-04-28T04:51:39.424Z,19.27
2023-04-28T04:54:06.000Z,16.10
2023-04-28T04:56:32.529Z,20.55
2023-04-28T04:58:59.028Z,23.73
2023-04-28T05:01:25.618Z,22.48
2023-04-28T05:03:52.316Z,17.45
2023-04-28T05:06:18.945Z,13.98
2023-04-28T05:08:45.332Z,15.85
2023-04-28T05:11:11.849Z,14.95
2023-04-28T05:13:39.405Z,17.17
2023-04-28T05:16:06.333Z,15.05
2023-04-28T05:18:32.888Z,13.13
2023-04-28T05:20:59.421Z,14.48
2023-04-28T05:23:26.021Z,12.23
2023-04-28T05:25:52.454Z,16.90
2023-04-28T05:28:21.329Z,18.10
2023-04-28T05:30:48.433Z,19.80
2023-04-28T05:33:15.008Z,13.10
2023-04-28T05:35:41.476Z,14.20
2023-04-28T05:38:08.137Z,9.07
2023-04-28T05:40:34.584Z,16.90
2023-04-28T05:43:01.242Z,14.48
2023-04-28T05:45:27.821Z,12.00
2023-04-28T05:47:54.818Z,14.70
2023-04-28T05:50:21.735Z,9.32
2023-04-28T05:52:48.225Z,8.95
2023-04-28T05:55:14.743Z,12.70
2023-04-28T05:57:51.839Z,10.95
2023-04-28T06:00:51.384Z,9.65
2023-04-28T06:03:19.040Z,8.75
2023-04-28T06:05:46.254Z,11.05
2023-04-28T06:08:12.958Z,16.27
2023-04-28T06:10:39.449Z,8.05
2023-04-28T06:13:06.582Z,9.60
2023-04-28T06:15:54.135Z,12.98
2023-04-28T06:18:20.794Z,9.57
2023-04-28T06:20:47.524Z,11.48
2023-04-28T06:23:13.992Z,7.53
2023-04-28T16:41:50.011Z,4.65
2023-04-28T16:44:16.728Z,9.60
2023-04-28T16:46:43.216Z,10.52
2023-04-28T16:49:09.622Z,7.85
2023-04-28T16:51:36.144Z,7.35
2023-04-28T16:54:02.669Z,6.00
2023-04-28T16:56:29.238Z,8.13
2023-04-28T16:58:55.834Z,9.88
2023-04-28T17:01:22.402Z,12.52
2023-04-28T17:03:50.451Z,10.50
2023-04-28T17:06:16.937Z,9.93
2023-04-28T17:08:43.425Z,10.30
2023-04-28T17:11:09.883Z,10.98
2023-04-28T17:13:36.377Z,6.50
2023-04-28T17:16:03.975Z,8.27
2023-04-28T17:18:31.133Z,8.70
2023-04-28T17:20:57.794Z,10.93
2023-04-28T17:23:24.298Z,10.02
2023-04-28T17:25:50.941Z,9.30
2023-04-28T17:28:17.433Z,10.90
2023-04-28T17:30:46.916Z,12.30
2023-04-28T17:33:13.936Z,10.32
2023-04-28T17:35:40.468Z,11.63
2023-04-28T17:38:06.957Z,8.40
2023-04-28T17:40:33.393Z,14.27
2023-04-28T17:42:59.968Z,15.60
2023-04-28T17:45:26.470Z,18.58
2023-04-28T17:47:53.165Z,17.90
2023-04-28T17:50:19.694Z,15.02
2023-04-28T17:52:46.273Z,13.18
2023-04-28T17:55:13.170Z,12.27
2023-04-28T17:57:39.701Z,16.90
2023-04-28T18:00:06.997Z,11.13
2023-04-28T18:02:33.541Z,16.80
2023-04-28T18:05:00.331Z,10.98
2023-04-28T18:07:27.037Z,20.80
2023-04-28T18:09:53.753Z,17.20
2023-04-28T18:12:20.211Z,14.55
2023-04-28T18:14:46.724Z,10.68
2023-04-28T18:17:13.299Z,10.30
2023-04-28T18:19:39.869Z,12.77
2023-04-28T18:22:06.637Z,14.57
2023-04-28T18:24:33.430Z,18.45
2023-04-28T18:26:59.854Z,15.60
2023-04-28T18:29:26.301Z,15.30
2023-04-28T18:31:52.833Z,13.68
2023-04-28T18:34:19.892Z,17.52
2023-04-28T18:36:46.372Z,18.55
2023-04-28T18:39:12.974Z,17.70
2023-04-28T18:41:40.120Z,18.83
2023-04-28T18:44:06.913Z,24.30
2023-04-28T18:46:34.024Z,21.55
2023-04-28T18:49:00.606Z,22.48
2023-04-28T18:51:27.168Z,30.30
2023-04-28T18:53:53.669Z,26.02
2023-04-28T18:56:21.121Z,24.80
2023-04-28T18:58:47.998Z,24.90
2023-04-28T19:01:15.481Z,21.13
2023-04-28T19:03:42.485Z,22.83
2023-04-28T19:06:09.115Z,41.05
2023-04-28T19:08:38.969Z,36.13
2023-04-28T19:11:09.575Z,44.50
2023-04-28T19:13:36.872Z,55.17
2023-04-28T19:16:03.640Z,50.83
2023-04-28T19:18:32.313Z,59.45
2023-04-28T19:21:08.577Z,58.65
2023-04-28T19:23:35.107Z,63.40
2023-04-28T19:26:02.032Z,61.42
2023-04-28T19:28:28.966Z,58.83
2023-04-28T19:30:58.716Z,53.45
2023-04-28T19:33:45.480Z,49.03
2023-04-28T19:36:11.924Z,46.38
2023-04-28T19:38:40.342Z,42.92
2023-04-28T19:41:07.309Z,42.92
2023-04-28T19:43:33.727Z,41.38
2023-04-28T19:46:00.242Z,35.63
2023-04-28T19:48:26.921Z,35.58
2023-04-28T19:50:53.676Z,31.42
2023-04-28T19:53:20.215Z,36.08
2023-04-28T19:55:46.651Z,35.95
2023-04-28T19:58:14.011Z,44.17
2023-04-28T20:00:40.482Z,40.90
2023-04-28T20:03:25.812Z,48.58
2023-04-28T20:05:52.466Z,42.70
2023-04-28T20:08:19.696Z,44.33
2023-04-28T20:10:46.940Z,43.08
2023-04-28T20:13:15.154Z,45.97
2023-04-28T20:15:42.407Z,48.67
2023-04-28T20:18:08.981Z,50.25
2023-04-28T20:20:35.598Z,54.35
2023-04-28T20:23:02.137Z,37.55
2023-04-28T20:25:28.986Z,36.35
2023-04-28T20:27:55.516Z,35.03
2023-04-28T20:30:22.052Z,36.45
2023-04-28T20:32:49.415Z,26.92
2023-04-28T20:35:15.883Z,26.70
2023-04-28T20:37:42.388Z,28.27
2023-04-28T20:40:10.522Z,28.35
2023-04-28T20:42:37.026Z,21.92
2023-04-28T20:45:04.600Z,21.15
2023-04-28T20:47:32.092Z,24.70
2023-04-28T20:49:58.626Z,23.40
2023-04-28T20:52:25.132Z,26.65
2023-04-28T20:54:54.057Z,23.45
2023-04-28T20:57:21.507Z,23.25
2023-04-28T20:59:47.952Z,24.38
2023-04-28T21:02:14.506Z,24.48
2023-04-28T21:04:41.120Z,21.58
2023-04-28T21:07:07.559Z,23.60
2023-04-28T21:09:35.842Z,20.50
2023-04-28T21:12:02.272Z,17.25
2023-04-28T21:14:28.896Z,17.15
2023-04-28T21:16:55.557Z,14.80
2023-04-28T21:19:22.192Z,13.82
2023-04-28T21:21:48.757Z,17.67
2023-04-28T21:24:15.317Z,15.75
2023-04-28T21:26:42.278Z,12.40
2023-04-28T21:29:09.383Z,19.23
2023-04-28T21:31:36.214Z,12.45
2023-04-28T21:34:46.500Z,14.32
2023-04-28T21:37:12.998Z,10.43
2023-04-28T21:39:39.514Z,25.90
2023-04-28T21:42:08.137Z,15.02
2023-04-28T21:44:34.782Z,13.55
2023-04-28T21:47:01.235Z,19.13
2023-04-28T21:49:27.745Z,14.88
2023-04-28T21:51:54.310Z,12.38
2023-04-28T21:54:21.207Z,13.32
2023-04-28T21:56:47.664Z,13.45
2023-04-28T21:59:14.294Z,11.45
2023-04-28T22:01:41.665Z,10.27
2023-04-28T22:04:08.952Z,9.30
2023-04-28T22:06:35.851Z,11.23
2023-04-28T22:09:02.299Z,12.30
2023-04-28T22:11:28.921Z,16.73
2023-04-28T22:13:55.620Z,14.25
2023-04-28T22:16:22.336Z,14.05
2023-04-28T22:18:48.826Z,13.95
2023-04-28T22:21:15.548Z,13.48
2023-04-28T22:23:42.006Z,16.75
2023-04-28T22:26:08.573Z,14.45
2023-04-28T22:28:35.495Z,14.20
2023-04-28T22:31:02.260Z,12.73
2023-04-28T22:33:43.936Z,14.77
2023-04-28T22:36:15.827Z,14.05
2023-04-28T22:41:11.790Z,11.93
2023-04-28T22:43:38.476Z,11.75
2023-04-28T22:46:04.926Z,10.98
2023-04-28T22:48:43.864Z,13.70
2023-04-28T22:51:11.882Z,10.40
2023-04-28T22:53:40.718Z,12.27
2023-04-28T22:56:12.081Z,11.75
2023-04-28T22:58:38.688Z,12.00
2023-04-28T23:01:06.917Z,12.65
2023-04-28T23:03:34.999Z,9.20
2023-04-28T23:06:02.982Z,13.60
2023-04-28T23:08:30.930Z,14.27
2023-04-28T23:10:58.553Z,11.50
2023-04-28T23:13:27.277Z,20.00
2023-04-28T23:15:54.363Z,9.02
2023-04-28T23:18:22.147Z,10.10
2023-04-28T23:20:50.507Z,11.38
2023-04-28T23:23:18.110Z,7.05
2023-04-28T23:25:44.710Z,7.30
2023-04-28T23:28:13.519Z,9.10
2023-04-28T23:30:41.527Z,9.65
2023-04-28T23:33:11.096Z,8.40
2023-04-28T23:35:40.522Z,11.52
2023-04-28T23:38:08.449Z,8.13
2023-04-28T23:40:36.387Z,10.18
2023-04-28T23:43:04.623Z,9.45
2023-04-28T23:45:31.485Z,13.13
2023-04-28T23:47:59.238Z,10.35
2023-04-28T23:50:27.938Z,7.70
2023-04-28T23:52:54.380Z,10.98
2023-04-28T23:55:20.804Z,10.25
2023-04-28T23:57:47.424Z,15.18
